Time,TemperatureF,DewpointF,PressureIn,WindDirection,WindDirectionDegrees,WindSpeedMPH,WindSpeedGustMPH,Humidity,HourlyPrecipIn,Conditions,Clouds,dailyrainin,SolarRadiationWatts/m^2,SoftwareType,DateUTC
2013-04-27 00:00:00,66.7,55.8,29.95,East,87,6.0,14.0,68,0.00,CLR,SCT,0.00,0.0,WeatherDisplay:10.37,2013-04-27 10:00:00,
2013-04-27 00:10:00,67.2,56.7,29.95,ESE,102,6.0,12.0,69,0.00,BKN,SCT,0.00,0.0,WeatherDisplay:10.37,2013-04-27 10:10:00,
2013-04-27 00:20:00,67.1,56.2,29.95,ESE,104,2.0,12.0,68,0.00,BKN,SCT,0.00,0.0,WeatherDisplay:10.37,2013-04-27 10:20:00,
2013-04-27 00:30:00,66.9,56.8,29.95,SE,127,2.0,6.0,70,0.00,BKN,SCT,0.00,0.0,WeatherDisplay:10.37,2013-04-27 10:30:00,
2013-04-27 00:40:00,66.9,56.4,29.95,ESE,123,3.0,6.0,69,0.00,BKN,SCT,0.00,0.0,WeatherDisplay:10.37,2013-04-27 10:40:00,
2013-04-27 00:50:00,67.2,57.1,29.95,ESE,119,5.0,13.0,70,0.00,BKN,SCT,0.00,0.0,WeatherDisplay:10.37,2013-04-27 10:50:00,
2013-04-27 01:00:00,67.2,57.1,29.95,ESE,108,2.0,8.0,70,0.00,BKN,SCT,0.00,0.0,WeatherDisplay:10.37,2013-04-27 11:00:00,
2013-04-27 01:10:00,67.3,57.2,29.95,SE,127,5.0,9.0,70,0.00,BKN,SCT,0.00,0.0,WeatherDisplay:10.37,2013-04-27 11:10:00,
2013-04-27 01:20:00,67.4,57.3,29.94,ESE,115,2.0,5.0,70,0.00,BKN,SCT,0.00,0.0,WeatherDisplay:10.37,2013-04-27 11:20:00,
2013-04-27 01:30:00,67.3,56.8,29.94,East,100,5.0,6.0,69,0.00,BKN,SCT,0.00,0.0,WeatherDisplay:10.37,2013-04-27 11:30:00,
2013-04-27 01:40:00,67.3,57.2,29.93,East,94,1.0,12.0,70,0.00,BKN,SCT,0.00,0.0,WeatherDisplay:10.37,2013-04-27 11:40:00,
2013-04-27 01:50:00,67.3,57.2,29.93,East,91,3.0,13.0,70,0.00,BKN,SCT,0.00,0.0,WeatherDisplay:10.37,2013-04-27 11:50:00,
2013-04-27 02:00:00,67.3,57.2,29.93,ESE,102,5.0,7.0,70,0.00,BKN,SCT,0.00,0.0,WeatherDisplay:10.37,2013-04-27 12:00:00,
2013-04-27 02:10:00,67.1,57.0,29.93,ESE,114,5.0,7.0,70,0.00,OVC,SCT,0.00,0.0,WeatherDisplay:10.37,2013-04-27 12:10:00,
2013-04-27 02:20:00,67.0,56.9,29.93,ESE,102,3.0,10.0,70,0.00,OVC,SCT,0.00,0.0,WeatherDisplay:10.37,2013-04-27 12:20:00,
2013-04-27 02:30:00,66.8,57.1,29.93,ESE,105,5.0,9.0,71,0.00,OVC,SCT,0.00,0.0,WeatherDisplay:10.37,2013-04-27 12:30:00,
2013-04-27 02:40:00,66.5,56.8,29.92,ESE,115,3.0,8.0,71,0.00,OVC,SCT,0.00,0.0,WeatherDisplay:10.37,2013-04-27 12:40:00,
2013-04-27 02:50:00,66.4,56.3,29.92,ESE,107,3.0,8.0,70,0.00,OVC,SCT,0.00,0.0,WeatherDisplay:10.37,2013-04-27 12:50:00,
2013-04-27 03:00:00,66.4,56.3,29.92,East,101,3.0,9.0,70,0.00,OVC,SCT,0.00,0.0,WeatherDisplay:10.37,2013-04-27 13:00:00,
2013-04-27 03:10:00,66.0,55.9,29.92,ESE,107,3.0,6.0,70,0.00,CLR,SCT,0.00,0.0,WeatherDisplay:10.37,2013-04-27 13:10:00,
2013-04-27 03:20:00,65.6,56.3,29.91,ESE,108,2.0,6.0,72,0.00,CLR,SCT,0.00,0.0,WeatherDisplay:10.37,2013-04-27 13:20:00,
2013-04-27 03:30:00,65.1,55.8,29.91,ESE,108,3.0,6.0,72,0.00,CLR,SCT,0.00,0.0,WeatherDisplay:10.37,2013-04-27 13:30:00,
2013-04-27 03:40:00,64.6,55.3,29.91,ESE,107,5.0,6.0,72,0.00,CLR,SCT,0.00,0.0,WeatherDisplay:10.37,2013-04-27 13:40:00,
2013-04-27 03:50:00,64.1,55.3,29.92,ESE,107,2.0,7.0,73,0.00,CLR,SCT,0.00,0.0,WeatherDisplay:10.37,2013-04-27 13:50:00,
2013-04-27 04:00:00,63.8,55.7,29.91,ESE,117,2.0,7.0,75,0.00,CLR,SCT,0.00,0.0,WeatherDisplay:10.37,2013-04-27 14:00:00,
2013-04-27 04:10:00,63.7,55.6,29.91,ESE,109,3.0,9.0,75,0.00,CLR,SCT,0.00,0.0,WeatherDisplay:10.37,2013-04-27 14:10:00,
2013-04-27 04:20:00,64.0,55.9,29.91,ESE,108,3.0,10.0,75,0.00,CLR,SCT,0.00,0.0,WeatherDisplay:10.37,2013-04-27 14:20:00,
2013-04-27 04:30:00,64.2,56.5,29.91,ESE,105,5.0,10.0,76,0.00,CLR,SCT,0.00,0.0,WeatherDisplay:10.37,2013-04-27 14:30:00,
2013-04-27 04:40:00,64.3,56.9,29.91,East,99,2.0,8.0,77,0.00,CLR,SCT,0.00,0.0,WeatherDisplay:10.37,2013-04-27 14:40:00,
2013-04-27 04:50:00,64.0,56.6,29.91,East,94,5.0,9.0,77,0.00,CLR,SCT,0.00,0.0,WeatherDisplay:10.37,2013-04-27 14:50:00,
2013-04-27 05:00:00,63.9,56.2,29.91,ESE,110,3.0,8.0,76,0.00,CLR,SCT,0.00,0.0,WeatherDisplay:10.37,2013-04-27 15:00:00,
2013-04-27 05:10:00,63.6,55.9,29.91,ESE,107,2.0,6.0,76,0.00,CLR,SCT,0.00,0.0,WeatherDisplay:10.37,2013-04-27 15:10:00,
2013-04-27 05:20:00,63.2,55.5,29.92,ESE,104,5.0,6.0,76,0.00,CLR,SCT,0.00,0.0,WeatherDisplay:10.37,2013-04-27 15:20:00,
2013-04-27 05:30:00,62.9,55.3,29.92,ESE,105,5.0,7.0,76,0.00,CLR,SCT,0.00,0.0,WeatherDisplay:10.37,2013-04-27 15:30:00,
2013-04-27 05:40:00,62.8,55.1,29.92,ESE,116,2.0,8.0,76,0.00,CLR,SCT,0.00,0.0,WeatherDisplay:10.37,2013-04-27 15:40:00,
2013-04-27 05:50:00,62.6,55.3,29.93,ESE,122,2.0,8.0,77,0.00,CLR,SCT,0.00,0.0,WeatherDisplay:10.37,2013-04-27 15:50:00,
2013-04-27 06:00:00,62.6,55.6,29.93,ESE,115,2.0,6.0,78,0.00,CLR,SCT,0.00,0.0,WeatherDisplay:10.37,2013-04-27 16:00:00,
2013-04-27 06:10:00,62.6,56.0,29.93,ESE,123,1.0,5.0,79,0.00,FEW,SCT,0.00,0.4,WeatherDisplay:10.37,2013-04-27 16:10:00,
2013-04-27 06:20:00,62.5,55.9,29.93,SE,129,1.0,5.0,79,0.00,FEW,SCT,0.00,1.1,WeatherDisplay:10.37,2013-04-27 16:20:00,
2013-04-27 06:30:00,62.2,55.6,29.94,South,169,0.0,2.0,79,0.00,FEW,SCT,0.00,2.3,WeatherDisplay:10.37,2013-04-27 16:30:00,
2013-04-27 06:40:00,61.8,55.6,29.95,South,169,0.0,1.0,80,0.00,FEW,SCT,0.00,4.5,WeatherDisplay:10.37,2013-04-27 16:40:00,
2013-04-27 06:50:00,61.8,55.9,29.95,ESE,102,1.0,4.0,81,0.00,FEW,SCT,0.00,8.9,WeatherDisplay:10.37,2013-04-27 16:50:00,
2013-04-27 07:00:00,62.1,55.9,29.96,East,98,1.0,5.0,80,0.00,FEW,SCT,0.00,9.5,WeatherDisplay:10.37,2013-04-27 17:00:00,
2013-04-27 07:10:00,62.7,56.0,29.97,ESE,122,0.0,3.0,79,0.00,CLR,SCT,0.00,12.4,WeatherDisplay:10.37,2013-04-27 17:10:00,
2013-04-27 07:20:00,63.2,56.9,29.97,SE,127,0.0,2.0,80,0.00,CLR,SCT,0.00,14.8,WeatherDisplay:10.37,2013-04-27 17:20:00,
2013-04-27 07:30:00,63.9,58.0,29.97,SE,127,0.0,2.0,81,0.00,CLR,SCT,0.00,61.7,WeatherDisplay:10.37,2013-04-27 17:30:00,
2013-04-27 07:40:00,65.9,58.4,29.97,SW,225,0.0,3.0,77,0.00,CLR,SCT,0.00,96.8,WeatherDisplay:10.37,2013-04-27 17:40:00,
2013-04-27 07:50:00,67.3,58.7,29.96,SW,225,1.0,3.0,74,0.00,CLR,SCT,0.00,116.3,WeatherDisplay:10.37,2013-04-27 17:50:00,
2013-04-27 08:00:00,68.8,59.0,29.96,SW,225,0.0,3.0,71,0.00,CLR,SCT,0.00,138.7,WeatherDisplay:10.37,2013-04-27 18:00:00,
2013-04-27 08:10:00,70.7,58.4,29.97,SW,225,0.0,2.0,65,0.00,CLR,SCT,0.00,159.3,WeatherDisplay:10.37,2013-04-27 18:10:00,
2013-04-27 08:20:00,71.9,59.1,29.97,SSW,203,0.0,3.0,64,0.00,CLR,SCT,0.00,176.3,WeatherDisplay:10.37,2013-04-27 18:20:00,
2013-04-27 08:30:00,73.5,59.2,29.97,SSE,158,0.0,1.0,61,0.00,CLR,SCT,0.00,197.4,WeatherDisplay:10.37,2013-04-27 18:30:00,
2013-04-27 08:40:00,74.7,59.4,29.97,SSE,158,2.0,3.0,59,0.00,CLR,SCT,0.00,215.8,WeatherDisplay:10.37,2013-04-27 18:40:00,
2013-04-27 08:50:00,75.1,59.8,29.97,SSW,200,2.0,5.0,59,0.00,CLR,SCT,0.00,236.4,WeatherDisplay:10.37,2013-04-27 18:50:00,
2013-04-27 09:00:00,75.4,59.6,29.97,WSW,244,2.0,5.0,58,0.00,CLR,SCT,0.00,256.2,WeatherDisplay:10.37,2013-04-27 19:00:00,
2013-04-27 09:10:00,75.9,58.6,29.97,West,266,1.0,5.0,55,0.00,CLR,SCT,0.00,279.3,WeatherDisplay:10.37,2013-04-27 19:10:00,
2013-04-27 09:20:00,76.5,58.6,29.96,WSW,254,2.0,6.0,54,0.00,CLR,SCT,0.00,299.8,WeatherDisplay:10.37,2013-04-27 19:20:00,
2013-04-27 09:30:00,77.4,59.4,29.96,South,191,0.0,5.0,54,0.00,CLR,SCT,0.00,344.7,WeatherDisplay:10.37,2013-04-27 19:30:00,
2013-04-27 09:40:00,78.3,59.8,29.96,SW,220,3.0,7.0,53,0.00,CLR,SCT,0.00,359.5,WeatherDisplay:10.37,2013-04-27 19:40:00,
2013-04-27 09:50:00,78.7,61.2,29.97,NW,308,3.0,10.0,55,0.00,CLR,SCT,0.00,406.4,WeatherDisplay:10.37,2013-04-27 19:50:00,
2013-04-27 10:00:00,78.6,60.6,29.96,West,270,3.0,10.0,54,0.00,CLR,SCT,0.00,154.3,WeatherDisplay:10.37,2013-04-27 20:00:00,
2013-04-27 10:10:00,78.1,60.6,29.96,WSW,256,5.0,8.0,55,0.00,CLR,SCT,0.00,150.0,WeatherDisplay:10.37,2013-04-27 20:10:00,
2013-04-27 10:20:00,76.7,60.8,29.96,West,265,5.0,9.0,58,0.00,CLR,SCT,0.00,148.5,WeatherDisplay:10.37,2013-04-27 20:20:00,
2013-04-27 10:30:00,76.5,61.1,29.96,WSW,239,5.0,9.0,59,0.00,CLR,SCT,0.00,516.3,WeatherDisplay:10.37,2013-04-27 20:30:00,
2013-04-27 10:40:00,78.8,63.3,29.96,WNW,295,6.0,14.0,59,0.00,CLR,SCT,0.00,545.5,WeatherDisplay:10.37,2013-04-27 20:40:00,
2013-04-27 10:50:00,78.3,60.8,29.96,West,277,7.0,13.0,55,0.00,CLR,SCT,0.00,574.1,WeatherDisplay:10.37,2013-04-27 20:50:00,
2013-04-27 11:00:00,78.5,60.9,29.96,West,280,6.0,12.0,55,0.00,CLR,SCT,0.00,181.8,WeatherDisplay:10.37,2013-04-27 21:00:00,
2013-04-27 11:10:00,77.4,61.0,29.96,WNW,286,3.0,12.0,57,0.00,FEW,SCT,0.00,552.5,WeatherDisplay:10.37,2013-04-27 21:10:00,
2013-04-27 11:20:00,78.6,61.0,29.96,NNE,12,2.0,7.0,55,0.00,FEW,SCT,0.00,177.6,WeatherDisplay:10.37,2013-04-27 21:20:00,
2013-04-27 11:30:00,78.0,62.0,29.96,North,358,2.0,6.0,58,0.00,FEW,SCT,0.00,457.6,WeatherDisplay:10.37,2013-04-27 21:30:00,
2013-04-27 11:40:00,78.0,62.0,29.95,North,1,0.0,5.0,58,0.00,FEW,SCT,0.00,211.7,WeatherDisplay:10.37,2013-04-27 21:40:00,
2013-04-27 11:50:00,77.1,63.5,29.95,North,3,3.0,6.0,63,0.00,FEW,SCT,0.00,502.1,WeatherDisplay:10.37,2013-04-27 21:50:00,
2013-04-27 12:00:00,77.3,63.7,29.95,ENE,66,5.0,10.0,63,0.00,FEW,SCT,0.00,198.8,WeatherDisplay:10.37,2013-04-27 22:00:00,
2013-04-27 12:10:00,77.8,66.0,29.94,NE,54,5.0,10.0,67,0.00,SCT,SCT,0.00,188.1,WeatherDisplay:10.37,2013-04-27 22:10:00,
2013-04-27 12:20:00,79.3,65.6,29.94,ENE,69,7.0,12.0,63,0.00,SCT,SCT,0.00,635.2,WeatherDisplay:10.37,2013-04-27 22:20:00,
2013-04-27 12:30:00,79.8,64.7,29.94,NE,52,7.0,13.0,60,0.00,SCT,SCT,0.00,499.6,WeatherDisplay:10.37,2013-04-27 22:30:00,
2013-04-27 12:40:00,80.4,66.6,29.94,ENE,58,6.0,14.0,63,0.00,SCT,SCT,0.00,192.6,WeatherDisplay:10.37,2013-04-27 22:40:00,
2013-04-27 12:50:00,81.6,66.9,29.93,NE,43,5.0,15.0,61,0.00,SCT,SCT,0.00,630.9,WeatherDisplay:10.37,2013-04-27 22:50:00,
2013-04-27 13:00:00,81.2,64.5,29.93,NE,51,7.0,13.0,57,0.00,SCT,SCT,0.00,221.7,WeatherDisplay:10.37,2013-04-27 23:00:00,
2013-04-27 13:10:00,79.2,64.1,29.93,ENE,61,6.0,12.0,60,0.00,SCT,SCT,0.00,615.0,WeatherDisplay:10.37,2013-04-27 23:10:00,
2013-04-27 13:20:00,80.4,65.2,29.92,NNE,30,5.0,10.0,60,0.00,SCT,SCT,0.00,164.8,WeatherDisplay:10.37,2013-04-27 23:20:00,
2013-04-27 13:30:00,80.2,65.5,29.91,NE,46,5.0,12.0,61,0.00,SCT,SCT,0.00,139.0,WeatherDisplay:10.37,2013-04-27 23:30:00,
2013-04-27 13:40:00,79.2,64.2,29.91,ENE,74,8.0,13.0,60,0.00,SCT,SCT,0.00,133.3,WeatherDisplay:10.37,2013-04-27 23:40:00,
2013-04-27 13:50:00,77.6,63.6,29.91,ENE,71,5.0,12.0,62,0.00,SCT,SCT,0.00,180.2,WeatherDisplay:10.37,2013-04-27 23:50:00,
2013-04-27 14:00:00,77.3,64.2,29.90,NE,56,7.0,13.0,64,0.00,SCT,SCT,0.00,255.0,WeatherDisplay:10.37,2013-04-28 00:00:00,
2013-04-27 14:10:00,77.8,64.6,29.90,ENE,69,5.0,14.0,64,0.00,SCT,SCT,0.00,134.1,WeatherDisplay:10.37,2013-04-28 00:10:00,
2013-04-27 14:20:00,77.3,64.2,29.90,ENE,66,1.0,14.0,64,0.00,SCT,SCT,0.00,156.6,WeatherDisplay:10.37,2013-04-28 00:20:00,
2013-04-27 14:30:00,78.6,65.4,29.89,ENE,77,6.0,10.0,64,0.00,SCT,SCT,0.00,174.8,WeatherDisplay:10.37,2013-04-28 00:30:00,
2013-04-27 14:40:00,79.1,65.0,29.89,ENE,69,6.0,14.0,62,0.00,SCT,SCT,0.00,167.1,WeatherDisplay:10.37,2013-04-28 00:40:00,
2013-04-27 14:50:00,78.1,64.9,29.88,ENE,74,8.0,17.0,64,0.00,SCT,SCT,0.00,149.3,WeatherDisplay:10.37,2013-04-28 00:50:00,
2013-04-27 15:00:00,78.0,65.7,29.88,ENE,62,8.0,17.0,66,0.00,SCT,SCT,0.00,471.0,WeatherDisplay:10.37,2013-04-28 01:00:00,
2013-04-27 15:10:00,78.5,65.3,29.88,ENE,74,9.0,15.0,64,0.00,CLR,SCT,0.00,179.6,WeatherDisplay:10.37,2013-04-28 01:10:00,
2013-04-27 15:20:00,78.2,64.6,29.88,ENE,59,6.0,16.0,63,0.00,CLR,SCT,0.00,142.1,WeatherDisplay:10.37,2013-04-28 01:20:00,
2013-04-27 15:30:00,77.9,65.2,29.87,ENE,75,2.0,13.0,65,0.00,CLR,SCT,0.00,120.2,WeatherDisplay:10.37,2013-04-28 01:30:00,
2013-04-27 15:40:00,78.0,64.9,29.87,ENE,64,7.0,13.0,64,0.00,CLR,SCT,0.00,343.7,WeatherDisplay:10.37,2013-04-28 01:40:00,
2013-04-27 15:50:00,79.0,65.4,29.87,ENE,64,9.0,15.0,63,0.00,CLR,SCT,0.00,217.0,WeatherDisplay:10.37,2013-04-28 01:50:00,
2013-04-27 16:00:00,78.8,64.2,29.87,ENE,65,7.0,14.0,61,0.00,CLR,SCT,0.00,289.6,WeatherDisplay:10.37,2013-04-28 02:00:00,
2013-04-27 16:10:00,78.7,64.1,29.87,NE,52,3.0,14.0,61,0.00,CLR,SCT,0.00,88.8,WeatherDisplay:10.37,2013-04-28 02:10:00,
2013-04-27 16:20:00,78.2,64.1,29.87,NNE,32,6.0,12.0,62,0.00,CLR,SCT,0.00,206.8,WeatherDisplay:10.37,2013-04-28 02:20:00,
2013-04-27 16:30:00,78.4,64.3,29.88,NE,45,6.0,13.0,62,0.00,CLR,SCT,0.00,157.1,WeatherDisplay:10.37,2013-04-28 02:30:00,
2013-04-27 16:40:00,78.1,64.0,29.88,NE,56,5.0,10.0,62,0.00,CLR,SCT,0.00,140.8,WeatherDisplay:10.37,2013-04-28 02:40:00,
2013-04-27 16:50:00,78.1,64.4,29.87,ENE,76,5.0,12.0,63,0.00,CLR,SCT,0.00,50.6,WeatherDisplay:10.37,2013-04-28 02:50:00,
2013-04-27 17:00:00,78.2,64.1,29.88,ENE,75,3.0,9.0,62,0.00,CLR,SCT,0.00,125.6,WeatherDisplay:10.37,2013-04-28 03:00:00,
2013-04-27 17:10:00,78.7,64.6,29.88,ENE,64,6.0,10.0,62,0.00,FEW,SCT,0.00,101.8,WeatherDisplay:10.37,2013-04-28 03:10:00,
2013-04-27 17:20:00,78.2,64.1,29.88,ENE,74,3.0,9.0,62,0.00,FEW,SCT,0.00,86.8,WeatherDisplay:10.37,2013-04-28 03:20:00,
2013-04-27 17:30:00,78.2,63.6,29.89,ENE,57,0.0,8.0,61,0.00,FEW,SCT,0.00,75.3,WeatherDisplay:10.37,2013-04-28 03:30:00,
2013-04-27 17:40:00,78.7,64.6,29.89,ENE,68,1.0,10.0,62,0.00,FEW,SCT,0.00,57.2,WeatherDisplay:10.37,2013-04-28 03:40:00,
2013-04-27 17:50:00,78.6,64.4,29.90,ENE,64,3.0,7.0,62,0.00,FEW,SCT,0.00,23.9,WeatherDisplay:10.37,2013-04-28 03:50:00,
2013-04-27 18:00:00,77.3,61.8,29.90,NNE,15,2.0,6.0,59,0.00,FEW,SCT,0.00,23.3,WeatherDisplay:10.37,2013-04-28 04:00:00,
2013-04-27 18:10:00,76.6,62.6,29.91,North,8,0.0,3.0,62,0.00,SCT,SCT,0.00,12.9,WeatherDisplay:10.37,2013-04-28 04:10:00,
2013-04-27 18:20:00,75.8,62.7,29.91,North,1,0.0,6.0,64,0.00,SCT,SCT,0.00,4.1,WeatherDisplay:10.37,2013-04-28 04:20:00,
2013-04-27 18:30:00,75.0,62.4,29.92,NW,312,2.0,5.0,65,0.00,SCT,SCT,0.00,1.0,WeatherDisplay:10.37,2013-04-28 04:30:00,
2013-04-27 18:40:00,74.3,64.3,29.92,NNW,337,0.0,4.0,71,0.00,SCT,SCT,0.00,0.1,WeatherDisplay:10.37,2013-04-28 04:40:00,
2013-04-27 18:50:00,73.7,62.9,29.92,NE,54,1.0,3.0,69,0.00,SCT,SCT,0.00,0.0,WeatherDisplay:10.37,2013-04-28 04:50:00,
2013-04-27 19:00:00,73.2,62.0,29.92,SSW,204,0.0,5.0,68,0.00,SCT,SCT,0.00,0.0,WeatherDisplay:10.37,2013-04-28 05:00:00,
2013-04-27 19:10:00,72.6,62.2,29.92,SW,226,2.0,5.0,70,0.00,SCT,SCT,0.00,0.0,WeatherDisplay:10.37,2013-04-28 05:10:00,
2013-04-27 19:20:00,71.9,62.4,29.93,SW,223,0.0,4.0,72,0.00,SCT,SCT,0.00,0.0,WeatherDisplay:10.37,2013-04-28 05:20:00,
2013-04-27 19:30:00,71.4,62.3,29.94,SW,223,1.0,4.0,73,0.00,SCT,SCT,0.00,0.0,WeatherDisplay:10.37,2013-04-28 05:30:00,
2013-04-27 19:40:00,71.0,61.9,29.94,SW,215,0.0,4.0,73,0.00,SCT,SCT,0.00,0.0,WeatherDisplay:10.37,2013-04-28 05:40:00,
2013-04-27 19:50:00,70.6,61.9,29.94,SW,214,3.0,5.0,74,0.00,SCT,SCT,0.00,0.0,WeatherDisplay:10.37,2013-04-28 05:50:00,
2013-04-27 20:00:00,70.2,61.9,29.94,SSW,213,1.0,5.0,75,0.00,SCT,SCT,0.00,0.0,WeatherDisplay:10.37,2013-04-28 06:00:00,
2013-04-27 20:10:00,69.7,61.8,29.95,SSW,213,0.0,3.0,76,0.00,CLR,SCT,0.00,0.0,WeatherDisplay:10.37,2013-04-28 06:10:00,
2013-04-27 20:20:00,69.2,61.7,29.95,SSW,213,0.0,1.0,77,0.00,CLR,SCT,0.00,0.0,WeatherDisplay:10.37,2013-04-28 06:20:00,
2013-04-27 20:30:00,68.6,61.5,29.96,SSW,197,2.0,5.0,78,0.00,CLR,SCT,0.00,0.0,WeatherDisplay:10.37,2013-04-28 06:30:00,
2013-04-27 20:40:00,68.1,61.3,29.96,ENE,71,0.0,5.0,79,0.00,CLR,SCT,0.00,0.0,WeatherDisplay:10.37,2013-04-28 06:40:00,
2013-04-27 20:50:00,67.6,60.9,29.97,ENE,72,0.0,1.0,79,0.00,CLR,SCT,0.00,0.0,WeatherDisplay:10.37,2013-04-28 06:50:00,
2013-04-27 21:00:00,67.1,61.1,29.97,ENE,72,0.0,2.0,81,0.00,CLR,SCT,0.00,0.0,WeatherDisplay:10.37,2013-04-28 07:00:00,
2013-04-27 21:10:00,66.6,60.6,29.97,ENE,72,0.0,0.0,81,0.00,CLR,SCT,0.00,0.0,WeatherDisplay:10.37,2013-04-28 07:10:00,
2013-04-27 21:20:00,66.2,60.5,29.97,ENE,72,0.0,3.0,82,0.00,CLR,SCT,0.00,0.0,WeatherDisplay:10.37,2013-04-28 07:20:00,
2013-04-27 21:30:00,65.9,60.6,29.98,ENE,72,0.0,0.0,83,0.00,CLR,SCT,0.00,0.0,WeatherDisplay:10.37,2013-04-28 07:30:00,
2013-04-27 21:40:00,65.7,60.4,29.98,ENE,72,0.0,2.0,83,0.00,CLR,SCT,0.00,0.0,WeatherDisplay:10.37,2013-04-28 07:40:00,
2013-04-27 21:50:00,65.6,60.3,29.99,ENE,72,0.0,1.0,83,0.00,CLR,SCT,0.00,0.0,WeatherDisplay:10.37,2013-04-28 07:50:00,
2013-04-27 22:00:00,65.4,60.1,29.99,ENE,72,0.0,2.0,83,0.00,CLR,SCT,0.00,0.0,WeatherDisplay:10.37,2013-04-28 08:00:00,
2013-04-27 22:10:00,65.3,59.7,29.99,ENE,72,0.0,3.0,82,0.00,CLR,SCT,0.00,0.0,WeatherDisplay:10.37,2013-04-28 08:10:00,
2013-04-27 22:20:00,65.1,59.5,29.99,ENE,72,0.0,1.0,82,0.00,CLR,SCT,0.00,0.0,WeatherDisplay:10.37,2013-04-28 08:20:00,
2013-04-27 22:30:00,65.0,59.4,29.99,ENE,72,0.0,1.0,82,0.00,CLR,SCT,0.00,0.0,WeatherDisplay:10.37,2013-04-28 08:30:00,
2013-04-27 22:40:00,64.7,59.1,30.00,ENE,72,0.0,1.0,82,0.00,CLR,SCT,0.00,0.0,WeatherDisplay:10.37,2013-04-28 08:40:00,
2013-04-27 22:50:00,64.4,58.8,29.99,ENE,72,0.0,2.0,82,0.00,CLR,SCT,0.00,0.0,WeatherDisplay:10.37,2013-04-28 08:50:00,
2013-04-27 23:00:00,64.2,58.6,29.99,ENE,72,0.0,1.0,82,0.00,CLR,SCT,0.00,0.0,WeatherDisplay:10.37,2013-04-28 09:00:00,
2013-04-27 23:10:00,63.9,58.6,29.99,ENE,72,0.0,1.0,83,0.00,CLR,SCT,0.00,0.0,WeatherDisplay:10.37,2013-04-28 09:10:00,
2013-04-27 23:20:00,63.7,58.4,29.99,ENE,72,0.0,1.0,83,0.00,CLR,SCT,0.00,0.0,WeatherDisplay:10.37,2013-04-28 09:20:00,
2013-04-27 23:30:00,63.5,58.2,29.98,ENE,75,1.0,3.0,83,0.00,CLR,SCT,0.00,0.0,WeatherDisplay:10.37,2013-04-28 09:30:00,
2013-04-27 23:40:00,63.4,58.5,29.97,East,99,1.0,4.0,84,0.00,CLR,SCT,0.00,0.0,WeatherDisplay:10.37,2013-04-28 09:40:00,
2013-04-27 23:50:00,63.4,58.5,29.97,ESE,105,1.0,4.0,84,0.00,CLR,SCT,0.00,0.0,WeatherDisplay:10.37,2013-04-28 09:50:00,